createdAt,value
2022-08-07T00:02:37.155Z,29.66
2022-08-07T00:04:53.346Z,29.54
2022-08-07T00:07:19.733Z,29.64
2022-08-07T00:09:59.262Z,29.64
2022-08-07T00:12:33.857Z,29.66
2022-08-07T00:15:00.220Z,29.57
2022-08-07T00:17:26.788Z,29.56
2022-08-07T00:20:01.578Z,29.64
2022-08-07T00:22:35.219Z,29.62
2022-08-07T00:25:02.733Z,29.73
2022-08-07T00:27:51.637Z,29.64
2022-08-07T00:30:26.694Z,29.59
2022-08-07T00:32:54.673Z,29.60
2022-08-07T00:35:21.031Z,29.62
2022-08-07T00:37:49.534Z,29.67
2022-08-07T00:40:17.194Z,29.61
2022-08-07T00:43:03.531Z,29.70
2022-08-07T00:45:36.439Z,29.71
2022-08-07T00:48:18.456Z,29.72
2022-08-07T00:50:50.325Z,29.63
2022-08-07T00:53:17.320Z,29.59
2022-08-07T00:56:03.207Z,29.70
2022-08-07T00:58:30.180Z,29.66
2022-08-07T01:00:56.540Z,29.69
2022-08-07T01:03:54.764Z,29.67
2022-08-07T01:06:09.283Z,29.61
2022-08-07T01:08:35.654Z,29.70
2022-08-07T01:11:10.771Z,29.78
2022-08-07T01:13:56.046Z,29.76
2022-08-07T01:16:30.450Z,29.77
2022-08-07T01:18:57.148Z,29.77
2022-08-07T01:21:26.125Z,29.71
2022-08-07T01:23:53.858Z,29.68
2022-08-07T01:26:20.323Z,29.71
2022-08-07T01:28:48.360Z,29.68
2022-08-07T01:31:15.409Z,29.64
2022-08-07T01:33:56.355Z,29.76
2022-08-07T01:36:33.514Z,29.69
2022-08-07T01:39:09.421Z,29.72
2022-08-07T01:41:36.647Z,29.65
2022-08-07T01:44:04.767Z,29.74
2022-08-07T01:46:31.310Z,29.62
2022-08-07T01:48:57.918Z,29.73
2022-08-07T01:52:02.399Z,29.59
2022-08-07T01:54:32.563Z,29.65
2022-08-07T01:56:59.007Z,29.66
2022-08-07T01:59:31.101Z,29.64
2022-08-07T02:02:01.966Z,29.69
2022-08-07T02:04:30.722Z,29.57
2022-08-07T02:06:57.115Z,29.55
2022-08-07T02:09:52.279Z,29.64
2022-08-07T02:12:09.830Z,29.63
2022-08-07T02:14:40.727Z,29.65
2022-08-07T02:17:07.574Z,29.62
2022-08-07T02:20:06.853Z,29.55
2022-08-07T02:22:20.295Z,29.66
2022-08-07T02:24:46.803Z,29.65
2022-08-07T02:27:14.918Z,29.60
2022-08-07T02:29:48.648Z,29.56
2022-08-07T02:32:23.420Z,29.67
2022-08-07T02:34:53.400Z,29.54
2022-08-07T02:37:19.768Z,29.53
2022-08-07T02:40:02.382Z,29.68
2022-08-07T02:42:32.448Z,29.57
2022-08-07T02:44:58.793Z,29.51
2022-08-07T02:47:25.817Z,29.60
2022-08-07T02:49:59.103Z,29.52
2022-08-07T02:52:31.057Z,29.74
2022-08-07T02:54:58.793Z,29.68
2022-08-07T02:57:30.858Z,29.52
2022-08-07T03:00:01.196Z,29.65
2022-08-07T03:02:31.179Z,29.56
2022-08-07T03:04:58.786Z,29.50
2022-08-07T03:07:43.083Z,29.51
2022-08-07T03:10:11.490Z,29.58
2022-08-07T03:12:40.703Z,29.52
2022-08-07T03:15:07.491Z,29.52
2022-08-07T03:17:36.303Z,29.63
2022-08-07T03:20:19.436Z,29.53
2022-08-07T03:22:50.287Z,29.60
2022-08-07T03:25:16.844Z,29.60
2022-08-07T03:27:59.175Z,29.55
2022-08-07T03:30:33.902Z,29.56
2022-08-07T03:33:00.960Z,29.53
2022-08-07T03:35:27.425Z,29.47
2022-08-07T03:38:10.569Z,29.52
2022-08-07T03:40:39.793Z,29.52
2022-08-07T03:43:13.794Z,29.56
2022-08-07T03:45:43.528Z,29.42
2022-08-07T03:48:13.816Z,29.44
2022-08-07T03:50:40.166Z,29.43
2022-08-07T03:53:18.361Z,29.38
2022-08-07T03:56:03.921Z,29.44
2022-08-07T03:59:05.643Z,29.44
2022-08-07T04:01:16.957Z,29.56
2022-08-07T04:03:49.784Z,29.61
2022-08-07T04:06:37.364Z,29.51
2022-08-07T04:09:04.893Z,29.53
2022-08-07T04:12:26.964Z,29.56
2022-08-07T04:14:38.817Z,29.57
2022-08-07T04:17:04.358Z,29.56
2022-08-07T04:19:52.440Z,29.44
2022-08-07T04:22:22.936Z,29.47
2022-08-07T04:24:49.478Z,29.52
2022-08-07T04:27:25.304Z,29.39
2022-08-07T04:30:01.808Z,29.45
2022-08-07T04:32:33.907Z,29.45
2022-08-07T04:35:01.419Z,29.36
2022-08-07T04:37:30.386Z,29.48
2022-08-07T04:40:16.723Z,29.40
2022-08-07T04:42:46.041Z,29.31
2022-08-07T04:45:22.725Z,29.36
2022-08-07T04:48:05.060Z,29.41
2022-08-07T04:50:37.019Z,29.40
2022-08-07T04:53:03.386Z,29.28
2022-08-07T04:58:13.926Z,29.31
2022-08-07T04:58:34.830Z,29.32
2022-08-07T05:01:02.454Z,29.41
2022-08-07T05:04:00.969Z,29.31
2022-08-07T05:06:19.204Z,29.41
2022-08-07T05:09:00.574Z,29.43
2022-08-07T05:11:57.216Z,29.42
2022-08-07T05:14:53.755Z,29.42
2022-08-07T05:17:00.839Z,29.36
2022-08-07T05:19:44.208Z,29.40
2022-08-07T05:22:11.644Z,29.27
2022-08-07T05:24:40.246Z,29.35
2022-08-07T05:27:07.076Z,29.29
2022-08-07T05:29:51.177Z,29.32
2022-08-07T05:32:19.986Z,29.27
2022-08-07T05:34:46.330Z,29.35
2022-08-07T05:37:12.996Z,29.33
2022-08-07T05:40:06.394Z,29.42
2022-08-07T05:42:33.700Z,29.32
2022-08-07T05:45:04.400Z,29.22
2022-08-07T05:48:01.549Z,29.24
2022-08-07T05:50:27.662Z,29.18
2022-08-07T05:52:54.167Z,29.32
2022-08-07T05:55:21.606Z,29.27
2022-08-07T05:57:49.312Z,29.19
2022-08-07T06:00:17.716Z,29.27
2022-08-07T06:02:44.319Z,29.23
2022-08-07T06:05:15.682Z,29.25
2022-08-07T06:08:13.647Z,29.26
2022-08-07T06:10:28.787Z,29.23
2022-08-07T06:12:55.154Z,29.30
2022-08-07T06:15:21.506Z,29.31
2022-08-07T06:17:53.508Z,29.26
2022-08-07T06:20:31.689Z,29.24
2022-08-07T06:23:25.179Z,29.26
2022-08-07T06:25:54.484Z,29.13
2022-08-07T06:28:27.493Z,29.17
2022-08-07T06:30:54.618Z,29.22
2022-08-07T06:33:22.549Z,29.26
2022-08-07T06:36:12.454Z,29.25
2022-08-07T06:38:35.533Z,29.28
2022-08-07T06:41:02.223Z,29.31
2022-08-07T06:43:39.982Z,29.17
2022-08-07T06:46:12.649Z,29.24
2022-08-07T06:48:41.788Z,29.14
2022-08-07T06:51:10.685Z,29.18
2022-08-07T06:55:27.265Z,29.09
2022-08-07T06:56:28.041Z,29.06
2022-08-07T07:00:14.271Z,29.11
2022-08-07T07:01:43.847Z,29.00
2022-08-07T07:04:32.447Z,29.11
2022-08-07T07:07:01.172Z,29.07
2022-08-07T07:09:31.088Z,29.10
2022-08-07T07:12:08.960Z,29.05
2022-08-07T07:14:40.387Z,28.97
2022-08-07T07:17:06.933Z,29.01
2022-08-07T07:19:57.375Z,29.10
2022-08-07T07:22:36.031Z,29.07
2022-08-07T07:26:32.211Z,29.06
2022-08-07T07:27:58.461Z,29.09
2022-08-07T07:30:37.931Z,29.08
2022-08-07T07:33:05.139Z,29.06
2022-08-07T07:35:33.601Z,29.04
2022-08-07T07:38:10.226Z,29.14
2022-08-07T07:40:37.868Z,29.12
2022-08-07T07:43:15.494Z,29.08
2022-08-07T07:46:39.984Z,29.08
2022-08-07T07:48:35.812Z,29.06
2022-08-07T07:51:02.719Z,28.99
2022-08-07T07:53:34.818Z,29.10
2022-08-07T07:56:01.411Z,29.04
2022-08-07T07:58:27.969Z,29.04
2022-08-07T08:00:54.394Z,29.08
2022-08-07T08:04:10.736Z,29.13
2022-08-07T08:06:07.963Z,29.07
2022-08-07T08:08:41.980Z,29.07
2022-08-07T08:11:13.634Z,29.09
2022-08-07T08:13:54.728Z,29.08
2022-08-07T08:16:25.158Z,29.10
2022-08-07T08:18:51.752Z,29.05
2022-08-07T08:21:18.106Z,29.13
2022-08-07T08:23:45.590Z,29.14
2022-08-07T08:26:12.565Z,29.14
2022-08-07T08:28:43.379Z,29.12
2022-08-07T08:31:14.819Z,29.08
2022-08-07T08:33:42.458Z,29.11
2022-08-07T08:36:15.570Z,28.96
2022-08-07T08:38:42.151Z,29.04
2022-08-07T08:41:11.908Z,28.99
2022-08-07T08:43:42.031Z,28.99
2022-08-07T08:46:09.706Z,29.06
2022-08-07T08:48:38.218Z,28.97
2022-08-07T08:51:14.491Z,28.98
2022-08-07T08:53:49.566Z,28.94
2022-08-07T08:56:17.317Z,29.08
2022-08-07T08:58:43.828Z,29.01
2022-08-07T09:01:14.533Z,29.02
2022-08-07T09:03:49.778Z,29.04
2022-08-07T09:06:18.925Z,29.05
2022-08-07T09:08:46.743Z,29.09
2022-08-07T09:11:14.018Z,29.06
2022-08-07T09:13:50.916Z,29.17
2022-08-07T09:16:25.686Z,29.13
2022-08-07T09:18:58.597Z,29.09
2022-08-07T09:21:34.185Z,29.13
2022-08-07T09:24:33.529Z,29.08
2022-08-07T09:26:57.983Z,29.01
2022-08-07T09:30:03.417Z,29.12
2022-08-07T09:32:18.889Z,29.11
2022-08-07T09:34:54.059Z,29.13
2022-08-07T09:37:20.702Z,29.08
2022-08-07T09:40:07.054Z,29.10
2022-08-07T09:42:35.168Z,29.12
2022-08-07T09:47:24.179Z,29.16
2022-08-07T09:47:57.734Z,29.13
2022-08-07T09:50:30.100Z,29.15
2022-08-07T09:52:56.619Z,29.07
2022-08-07T09:55:29.395Z,29.09
2022-08-07T09:58:03.403Z,29.10
2022-08-07T10:00:30.054Z,29.13
2022-08-07T10:02:58.503Z,29.11
2022-08-07T10:05:59.176Z,29.17
2022-08-07T10:08:21.281Z,29.14
2022-08-07T10:14:01.315Z,29.08
2022-08-07T10:16:23.395Z,29.09
2022-08-07T10:18:50.801Z,29.17
2022-08-07T10:21:50.323Z,29.14
2022-08-07T10:24:08.630Z,29.04
2022-08-07T10:26:36.332Z,29.05
2022-08-07T10:29:02.724Z,29.10
2022-08-07T10:31:31.447Z,29.20
2022-08-07T10:34:15.335Z,29.16
2022-08-07T10:36:45.585Z,29.14
2022-08-07T10:39:13.952Z,29.13
2022-08-07T10:41:47.305Z,29.27
2022-08-07T10:44:28.714Z,29.16
2022-08-07T10:47:05.778Z,29.13
2022-08-07T10:49:49.815Z,29.17
2022-08-07T10:52:17.663Z,29.11
2022-08-07T10:54:55.152Z,29.18
2022-08-07T10:57:34.334Z,29.28
2022-08-07T11:00:01.233Z,29.20
2022-08-07T11:02:34.057Z,29.20
2022-08-07T11:05:07.276Z,29.13
2022-08-07T11:07:58.441Z,29.12
2022-08-07T11:10:22.979Z,29.14
2022-08-07T11:13:01.572Z,29.13
2022-08-07T11:15:31.627Z,29.19
2022-08-07T11:18:03.359Z,29.19
2022-08-07T11:20:30.126Z,29.10
2022-08-07T11:22:56.946Z,29.11
2022-08-07T11:25:23.377Z,29.08
2022-08-07T11:28:03.138Z,29.15
2022-08-07T11:30:41.412Z,29.07
2022-08-07T11:33:14.249Z,29.13
2022-08-07T11:35:59.831Z,29.06
2022-08-07T11:38:28.357Z,29.09
2022-08-07T11:40:55.651Z,29.06
2022-08-07T11:43:41.221Z,29.07
2022-08-07T11:46:08.854Z,29.11
2022-08-07T11:48:35.694Z,29.03
2022-08-07T11:51:03.944Z,29.14
2022-08-07T11:53:35.611Z,29.06
2022-08-07T11:56:13.983Z,29.11
2022-08-07T11:58:49.756Z,29.13
2022-08-07T12:01:20.230Z,29.12
2022-08-07T12:03:48.707Z,29.13
2022-08-07T12:06:39.087Z,29.19
2022-08-07T12:09:01.445Z,29.21
2022-08-07T12:11:32.595Z,29.26
2022-08-07T12:13:59.057Z,29.14
2022-08-07T12:16:28.835Z,29.27
2022-08-07T12:18:57.265Z,29.22
2022-08-07T12:22:37.310Z,29.16
2022-08-07T12:24:38.030Z,29.23
2022-08-07T12:26:56.289Z,29.11
2022-08-07T12:29:38.155Z,29.09
2022-08-07T12:32:12.080Z,29.12
2022-08-07T12:34:39.128Z,29.12
2022-08-07T12:37:08.214Z,29.08
2022-08-07T12:39:50.714Z,29.07
2022-08-07T12:42:17.771Z,29.14
2022-08-07T12:44:53.762Z,29.30
2022-08-07T12:47:21.850Z,29.24
2022-08-07T12:50:04.608Z,29.27
2022-08-07T12:52:34.099Z,29.23
2022-08-07T12:55:05.695Z,29.32
2022-08-07T12:58:01.238Z,29.23
2022-08-07T13:00:32.480Z,29.26
2022-08-07T13:03:01.111Z,29.14
2022-08-07T13:06:03.627Z,29.20
2022-08-07T13:08:19.860Z,29.27
2022-08-07T13:10:51.814Z,29.10
2022-08-07T13:13:48.212Z,29.17
2022-08-07T13:16:05.069Z,29.18
2022-08-07T13:18:31.425Z,29.12
2022-08-07T13:21:00.819Z,29.28
2022-08-07T13:24:01.469Z,29.27
2022-08-07T13:26:15.947Z,29.18
2022-08-07T13:28:44.698Z,29.24
2022-08-07T13:31:13.057Z,29.29
2022-08-07T13:34:30.667Z,29.30
2022-08-07T13:36:26.379Z,29.15
2022-08-07T13:38:54.471Z,29.20
2022-08-07T13:41:21.064Z,29.21
2022-08-07T13:43:52.763Z,29.19
2022-08-07T13:46:28.897Z,29.14
2022-08-07T13:48:59.423Z,29.30
2022-08-07T13:51:28.210Z,29.30
2022-08-07T13:54:16.603Z,29.21
2022-08-07T13:56:51.624Z,29.19
2022-08-07T13:59:22.346Z,29.21
2022-08-07T14:01:51.113Z,29.27
2022-08-07T14:04:35.565Z,29.35
2022-08-07T14:07:03.201Z,29.20
2022-08-07T14:10:03.043Z,29.26
2022-08-07T14:12:16.581Z,29.25
2022-08-07T14:14:53.837Z,29.18
2022-08-07T14:18:12.711Z,29.36
2022-08-07T14:20:43.297Z,29.15
2022-08-07T14:22:52.882Z,29.18
2022-08-07T14:25:19.250Z,29.34
2022-08-07T14:28:11.203Z,29.29
2022-08-07T14:30:33.436Z,29.31
2022-08-07T14:32:59.795Z,29.29
2022-08-07T14:35:45.716Z,29.33
2022-08-07T14:38:24.777Z,29.29
2022-08-07T14:40:56.720Z,29.26
2022-08-07T14:43:58.116Z,29.29
2022-08-07T14:46:09.697Z,29.35
2022-08-07T14:48:36.098Z,29.27
2022-08-07T14:51:02.765Z,29.26
2022-08-07T14:54:03.757Z,29.30
2022-08-07T14:56:29.898Z,29.32
2022-08-07T14:58:56.900Z,29.32
2022-08-07T15:01:23.302Z,29.26
2022-08-07T15:03:52.438Z,29.29
2022-08-07T15:06:19.571Z,29.24
2022-08-07T15:08:49.967Z,29.24
2022-08-07T15:14:09.991Z,29.23
2022-08-07T15:16:37.091Z,29.30
2022-08-07T15:19:03.467Z,29.31
2022-08-07T15:21:58.474Z,29.34
2022-08-07T15:27:06.209Z,29.28
2022-08-07T15:35:05.266Z,29.14
2022-08-07T15:38:04.476Z,29.26
2022-08-07T15:40:33.888Z,29.10
2022-08-07T15:43:00.424Z,29.26
2022-08-07T15:45:55.761Z,29.30
2022-08-07T15:48:14.177Z,29.31
2022-08-07T15:51:08.380Z,29.26
2022-08-07T15:53:52.271Z,29.29
2022-08-07T15:56:19.414Z,29.25
2022-08-07T15:58:45.765Z,29.17
2022-08-07T16:01:20.370Z,29.30
2022-08-07T16:03:55.877Z,29.27
2022-08-07T16:06:24.963Z,29.25
2022-08-07T16:08:52.923Z,29.21
2022-08-07T16:11:28.743Z,29.19
2022-08-07T16:13:58.551Z,29.19
2022-08-07T16:16:47.735Z,29.22
2022-08-07T16:19:13.016Z,29.19
2022-08-07T16:22:03.364Z,29.21
2022-08-07T16:24:34.785Z,29.24
2022-08-07T16:27:01.749Z,29.25
2022-08-07T16:30:10.983Z,29.24
2022-08-07T16:32:34.797Z,29.29
2022-08-07T16:35:00.754Z,29.33
2022-08-07T16:38:06.206Z,29.24
2022-08-07T16:40:23.006Z,29.24
2022-08-07T16:42:55.354Z,29.29
2022-08-07T16:48:09.027Z,29.25
2022-08-07T16:50:52.673Z,29.20
2022-08-07T16:54:02.946Z,29.13
2022-08-07T16:56:10.654Z,29.22
2022-08-07T16:59:02.235Z,29.22
2022-08-07T17:01:23.362Z,29.18
2022-08-07T17:03:59.610Z,29.24
2022-08-07T17:06:31.328Z,29.13
2022-08-07T17:09:10.552Z,29.26
2022-08-07T17:12:04.936Z,29.33
2022-08-07T17:14:26.477Z,29.26
2022-08-07T17:16:55.539Z,29.21
2022-08-07T17:20:00.953Z,29.27
2022-08-07T17:22:10.639Z,29.22
2022-08-07T17:24:37.066Z,29.21
2022-08-07T17:27:03.411Z,29.21
2022-08-07T17:30:14.989Z,29.29
2022-08-07T17:32:30.380Z,29.27
2022-08-07T17:35:50.945Z,29.28
2022-08-07T17:38:09.412Z,29.35
2022-08-07T17:40:30.807Z,29.20
2022-08-07T17:42:59.180Z,29.18
2022-08-07T17:45:26.293Z,29.24
2022-08-07T17:47:54.352Z,29.26
2022-08-07T17:50:20.842Z,29.24
2022-08-07T17:52:47.200Z,29.24
2022-08-07T17:55:14.367Z,29.25
2022-08-07T17:58:01.890Z,29.36
2022-08-07T18:00:34.175Z,29.26
2022-08-07T18:03:01.143Z,29.25
2022-08-07T18:06:03.165Z,29.19
2022-08-07T18:08:24.271Z,29.25
2022-08-07T18:12:08.214Z,29.25
2022-08-07T18:13:40.850Z,29.28
2022-08-07T18:16:07.847Z,29.23
2022-08-07T18:21:01.511Z,29.25
2022-08-07T18:21:27.496Z,29.23
2022-08-07T18:24:07.482Z,29.21
2022-08-07T18:26:35.184Z,29.23
2022-08-07T18:29:02.226Z,29.11
2022-08-07T18:31:33.716Z,29.18
2022-08-07T18:34:06.157Z,29.03
2022-08-07T18:36:53.762Z,29.11
2022-08-07T18:40:06.961Z,29.18
2022-08-07T18:42:06.876Z,29.09
2022-08-07T18:45:39.599Z,29.14
2022-08-07T18:47:25.571Z,29.31
2022-08-07T18:50:39.550Z,29.20
2022-08-07T18:53:02.922Z,29.23
2022-08-07T18:55:42.280Z,29.27
2022-08-07T18:58:15.138Z,29.28
2022-08-07T19:00:41.667Z,29.14
2022-08-07T19:03:20.751Z,29.12
2022-08-07T19:06:05.041Z,29.23
2022-08-07T19:08:31.493Z,29.23
2022-08-07T19:10:58.283Z,29.21
2022-08-07T19:13:24.623Z,29.19
2022-08-07T19:16:04.906Z,29.18
2022-08-07T19:18:37.330Z,29.13
2022-08-07T19:21:13.946Z,29.29
2022-08-07T19:24:00.136Z,29.21
2022-08-07T19:26:28.897Z,29.16
2022-08-07T19:30:55.224Z,29.19
2022-08-07T19:32:10.930Z,29.06
2022-08-07T19:34:33.830Z,29.06
2022-08-07T19:37:10.211Z,29.16
2022-08-07T19:39:57.331Z,29.04
2022-08-07T19:42:29.509Z,29.13
2022-08-07T19:44:56.998Z,29.05
2022-08-07T19:47:27.398Z,29.04
2022-08-07T19:49:58.191Z,29.11
2022-08-07T19:52:29.792Z,29.06
2022-08-07T19:54:57.261Z,29.14
2022-08-07T19:58:02.713Z,28.92
2022-08-07T20:00:10.553Z,28.95
2022-08-07T20:02:38.960Z,28.96
2022-08-07T20:05:07.949Z,28.90
2022-08-07T20:07:47.219Z,28.87
2022-08-07T20:10:37.083Z,28.91
2022-08-07T20:13:00.929Z,28.85
2022-08-07T20:15:32.946Z,28.89
2022-08-07T20:18:04.463Z,28.88
2022-08-07T20:20:30.886Z,28.91
2022-08-07T20:22:57.252Z,28.88
2022-08-07T20:25:23.608Z,28.86
2022-08-07T20:27:54.077Z,28.88
2022-08-07T20:30:25.091Z,28.86
2022-08-07T20:32:51.817Z,28.86
2022-08-07T20:35:22.003Z,28.86
2022-08-07T20:37:57.725Z,28.90
2022-08-07T20:40:32.229Z,28.94
2022-08-07T20:43:00.904Z,28.90
2022-08-07T20:45:33.538Z,29.01
2022-08-07T20:48:28.727Z,28.93
2022-08-07T20:50:56.787Z,28.97
2022-08-07T20:54:02.212Z,29.00
2022-08-07T20:56:10.471Z,29.05
2022-08-07T20:58:36.844Z,28.98
2022-08-07T21:01:04.817Z,28.99
2022-08-07T21:03:31.463Z,29.00
2022-08-07T21:06:01.298Z,28.89
2022-08-07T21:08:32.296Z,28.96
2022-08-07T21:11:04.732Z,28.92
2022-08-07T21:13:43.756Z,28.87
2022-08-07T21:16:17.447Z,28.99
2022-08-07T21:18:46.348Z,28.97
2022-08-07T21:21:16.990Z,28.92
2022-08-07T21:23:50.431Z,29.00
2022-08-07T21:26:17.182Z,28.95
2022-08-07T21:28:48.112Z,29.04
2022-08-07T21:31:16.871Z,29.00
2022-08-07T21:33:57.922Z,29.03
2022-08-07T21:36:31.158Z,29.00
2022-08-07T21:38:58.923Z,29.02
2022-08-07T21:41:26.393Z,29.06
2022-08-07T21:43:55.919Z,29.06
2022-08-07T21:46:25.014Z,28.99
2022-08-07T21:48:58.295Z,29.12
2022-08-07T21:51:25.466Z,29.14
2022-08-07T21:53:53.011Z,29.10
2022-08-07T21:56:36.001Z,29.27
2022-08-07T21:59:03.159Z,29.23
2022-08-07T22:02:10.345Z,29.19
2022-08-07T22:04:17.636Z,29.17
2022-08-07T22:06:46.630Z,29.13
2022-08-07T22:09:16.343Z,29.16
2022-08-07T22:12:05.509Z,29.21
2022-08-07T22:14:34.737Z,29.31
2022-08-07T22:17:02.447Z,29.26
2022-08-07T22:19:30.565Z,29.15
2022-08-07T22:22:02.799Z,29.21
2022-08-07T22:24:37.043Z,29.24
2022-08-07T22:27:03.450Z,29.28
2022-08-07T22:29:33.778Z,29.12
2022-08-07T22:32:06.384Z,29.14
2022-08-07T22:34:33.212Z,29.13
2022-08-07T22:37:02.377Z,29.21
2022-08-07T22:39:29.426Z,29.25
2022-08-07T22:42:03.992Z,29.22
2022-08-07T22:44:58.994Z,29.25
2022-08-07T22:47:25.874Z,29.25
2022-08-07T22:49:54.831Z,29.28
2022-08-07T22:52:37.065Z,29.35
2022-08-07T22:55:17.768Z,29.26
2022-08-07T22:57:49.809Z,29.21
2022-08-07T23:00:16.314Z,29.26
2022-08-07T23:02:43.083Z,29.34
2022-08-07T23:06:08.566Z,29.17
2022-08-07T23:07:57.163Z,29.32
2022-08-07T23:10:36.450Z,29.32
2022-08-07T23:13:06.244Z,29.20
2022-08-07T23:16:06.687Z,29.17
2022-08-07T23:18:19.321Z,29.28
2022-08-07T23:20:53.366Z,29.29
2022-08-07T23:24:05.966Z,29.32
2022-08-07T23:26:06.411Z,29.24
2022-08-07T23:28:32.771Z,29.21
2022-08-07T23:31:05.822Z,29.20
2022-08-07T23:34:36.192Z,29.25
2022-08-07T23:36:28.912Z,29.29
2022-08-07T23:38:56.262Z,29.18
2022-08-07T23:41:22.616Z,29.24
2022-08-07T23:43:59.518Z,29.26
2022-08-07T23:46:27.190Z,29.35
2022-08-07T23:48:53.775Z,29.30
2022-08-07T23:52:59.976Z,29.30
2022-08-07T23:54:19.471Z,29.26
2022-08-07T23:56:54.087Z,29.25
